LTAC/ESB METAR and TAF weather

Enter ICAO airport designator
Station Type Date Time Source
LTAC METAR 2020/11/27 02:50 UTC NOAA

LTAC 270250Z 00000KT CAVOK M07/M09 Q1025 NOSIG


Station Type Date Time Source
LTAC Decoded METAR 2020/11/27 02:50 UTC NOAA

Ankara / Esenboga, Turkey (LTAC) 40-07N 032-59E 949M
Nov 26, 2020 - 09:50 PM EST / 2020.11.27 0250 UTC
Wind: Calm:0
Visibility: greater than 7 mile(s):0
Temperature: 19 F (-7 C)
Dew Point: 15 F (-9 C)
Relative Humidity: 85%
Pressure (altimeter): 30.27 in. Hg (1025 hPa)
ob: LTAC 270250Z 00000KT CAVOK M07/M09 Q1025 NOSIG
cycle: 3

Station Type Date Time Source
LTAC TAF 2020/11/26 18:03 UTC NOAA

TAF TAF LTAC 261640Z 2618/2718 VRB02KT CAVOK

Example: see airport list